< < Back
Terminal Aerodrome Forecast


Current Version              Previous Versions:   1  2  3  4  5  6  7  8  9  

Terminal Aerodrome Forecast

382
FTUS42 KFFC 061441 AAB
TAFMCN
TAF AMD
KMCN 061441Z 0615/0712 04006KT 3SM BR SCT008 BKN015
     FM061600 05007KT P6SM BKN025
     FM061800 02005KT P6SM SCT035
     FM062100 35006KT P6SM SKC
     FM070000 00000KT P6SM SKC=

Latest METAR

779
SAUS80 KWBC 070400 RRA
MTRMCN
METAR KMCN 070353Z AUTO 00000KT 10SM CLR 03/02 A3043 RMK AO2 SLP304
T00280022 TSNO


USA.gov is the U.S. government's official web portal to all federal, state and local government web resources and services.